Time;durP1;ratioP1;P1;durP2;ratioP2;P2;SDS_P1;SDS_P2;PMS_P1;PMS_P2;Temp;Humidity;BMP_temperature;BMP_pressure;BME280_temperature;BME280_humidity;BME280_pressure;Samples;Min_cycle;Max_cycle;Signal;HPM_P1;HPM_P2
2022/01/17 00:00:28;;;;;;;;;13.00;11.60;;;;;5.63;87.09;101134.00;5106075;27;8837;-64
2022/01/17 00:02:56;;;;;;;;;15.40;13.80;;;;;5.65;86.74;101147.16;5124490;27;8885;-65
2022/01/17 00:05:24;;;;;;;;;12.20;11.20;;;;;5.65;86.67;101150.69;5126807;27;8861;-64
2022/01/17 00:07:52;;;;;;;;;12.60;12.60;;;;;5.64;87.05;101156.00;5124894;27;8829;-67
2022/01/17 00:10:19;;;;;;;;;12.80;12.40;;;;;5.66;87.02;101164.72;5128520;27;9474;-62
2022/01/17 00:12:50;;;;;;;;;11.60;9.60;;;;;5.66;86.76;101164.72;5127985;27;8839;-62
2022/01/17 00:15:22;;;;;;;;;16.40;15.00;;;;;5.66;87.19;101162.97;5128586;27;9543;-63
2022/01/17 00:17:56;;;;;;;;;17.20;14.20;;;;;5.66;86.82;101175.28;5128314;27;8866;-62
2022/01/17 00:20:26;;;;;;;;;15.00;14.20;;;;;5.66;86.70;101164.72;5126536;27;8948;-62
2022/01/17 00:22:53;;;;;;;;;14.40;13.00;;;;;5.66;86.93;101170.00;5106683;28;8959;-62
2022/01/17 00:25:21;;;;;;;;;13.20;12.40;;;;;5.67;86.93;101174.38;5106948;28;8863;-64
2022/01/17 00:27:51;;;;;;;;;6.80;3.80;;;;;5.66;86.95;101175.28;5108105;28;8832;-62
2022/01/17 00:30:19;;;;;;;;;12.00;9.60;;;;;5.67;86.82;101179.66;5106966;28;9772;-63
2022/01/17 00:32:46;;;;;;;;;10.00;9.00;;;;;5.67;86.68;101169.09;5106903;28;8819;-61
2022/01/17 00:35:15;;;;;;;;;12.00;12.00;;;;;5.67;86.87;101162.03;5124080;27;8826;-64
2022/01/17 00:37:43;;;;;;;;;11.80;11.40;;;;;5.67;86.90;101162.03;5131840;27;8849;-64
2022/01/17 00:40:11;;;;;;;;;14.80;13.80;;;;;5.69;87.00;101151.41;5129279;27;8829;-63
2022/01/17 00:42:40;;;;;;;;;8.20;6.00;;;;;5.70;86.99;101151.31;5126692;27;8972;-61
2022/01/17 00:45:08;;;;;;;;;18.50;16.50;;;;;5.70;86.76;101148.69;5129138;27;8860;-65
2022/01/17 00:47:36;;;;;;;;;17.60;15.40;;;;;5.70;86.59;101140.75;5129408;27;8984;-62
2022/01/17 00:50:04;;;;;;;;;12.00;11.20;;;;;5.73;86.95;101150.34;5127536;27;8841;-64
2022/01/17 00:52:31;;;;;;;;;21.00;18.40;;;;;5.74;87.04;101155.59;5110648;27;8857;-64
2022/01/17 00:54:59;;;;;;;;;17.00;15.20;;;;;5.75;87.12;101159.06;5108621;28;8859;-63
2022/01/17 00:57:27;;;;;;;;;15.20;10.80;;;;;5.75;87.05;101167.00;5107908;27;8848;-64
2022/01/17 00:59:55;;;;;;;;;17.60;15.20;;;;;5.75;87.00;101162.59;5108226;28;8839;-64
2022/01/17 01:02:22;;;;;;;;;16.60;15.40;;;;;5.76;86.76;101166.94;5109086;27;8828;-66
2022/01/17 01:04:52;;;;;;;;;21.40;14.80;;;;;5.78;87.06;101165.09;5128515;27;8926;-62
2022/01/17 01:07:20;;;;;;;;;6.40;5.60;;;;;5.79;87.27;101165.97;5121549;27;8866;-64
2022/01/17 01:09:57;;;;;;;;;13.80;10.20;;;;;5.82;86.90;101171.16;5129740;27;8837;-64
2022/01/17 01:12:24;;;;;;;;;9.60;9.20;;;;;5.82;86.87;101168.50;5111228;28;8824;-62
2022/01/17 01:14:52;;;;;;;;;18.60;16.40;;;;;5.82;86.91;101155.28;5109749;28;8848;-64
2022/01/17 01:17:32;;;;;;;;;14.00;12.00;;;;;5.82;86.97;101147.34;5106881;27;8946;-64
2022/01/17 01:20:08;;;;;;;;;16.00;11.20;;;;;5.81;86.67;101150.94;5118103;27;8830;-64
2022/01/17 01:28:06;;;;;;;;;18.20;15.20;;;;;5.76;87.15;101144.97;5109006;28;8868;-62
2022/01/17 01:30:40;;;;;;;;;15.00;13.00;;;;;5.75;86.99;101164.34;5128365;27;8830;-63
2022/01/17 01:33:08;;;;;;;;;15.20;13.80;;;;;5.75;86.84;101169.63;5129934;27;8837;-62
2022/01/17 01:35:44;;;;;;;;;17.00;16.20;;;;;5.76;87.10;101168.75;5130301;27;8830;-64
2022/01/17 01:38:12;;;;;;;;;8.20;7.00;;;;;5.73;86.71;101182.06;5127273;27;8846;-62
2022/01/17 01:40:39;;;;;;;;;11.20;8.60;;;;;5.73;87.24;101189.97;5129314;27;8834;-63
2022/01/17 01:43:07;;;;;;;;;15.20;12.00;;;;;5.72;87.46;101196.19;5116015;27;8864;-64
2022/01/17 01:45:37;;;;;;;;;17.00;16.00;;;;;5.72;86.74;101204.13;5106157;28;8974;-66
2022/01/17 01:48:08;;;;;;;;;10.00;10.00;;;;;5.70;87.14;101203.34;5119855;27;8884;-62
2022/01/17 01:50:35;;;;;;;;;19.60;16.20;;;;;5.70;87.18;101209.47;5127077;27;8841;-64
2022/01/17 01:53:04;;;;;;;;;13.80;11.20;;;;;5.71;87.46;101202.41;5108518;27;8995;-64
2022/01/17 01:55:32;;;;;;;;;20.80;16.80;;;;;5.72;87.10;101188.28;5109099;28;8844;-64
2022/01/17 01:58:00;;;;;;;;;16.00;12.40;;;;;5.73;87.81;101187.34;5109027;27;8850;-64
2022/01/17 02:00:28;;;;;;;;;13.60;10.80;;;;;5.74;87.79;101174.06;5108311;28;8844;-63
2022/01/17 02:02:55;;;;;;;;;15.00;14.20;;;;;5.75;86.67;101196.06;5114643;27;8830;-64
2022/01/17 02:05:25;;;;;;;;;12.00;10.60;;;;;5.76;87.54;101203.09;5129448;27;8829;-64
2022/01/17 02:07:52;;;;;;;;;15.00;13.00;;;;;5.76;87.50;101188.09;5118744;27;8849;-62
2022/01/17 02:10:20;;;;;;;;;16.00;15.00;;;;;5.75;87.20;101188.13;5129235;27;8864;-65
2022/01/17 02:12:48;;;;;;;;;7.40;6.20;;;;;5.76;87.25;101184.59;5127894;27;8837;-62
2022/01/17 02:15:16;;;;;;;;;18.60;17.60;;;;;5.76;87.09;101174.88;5125750;27;8897;-64
2022/01/17 02:17:46;;;;;;;;;10.00;8.20;;;;;5.76;87.18;101174.03;5124848;27;8846;-64
2022/01/17 02:20:16;;;;;;;;;14.20;12.80;;;;;5.77;87.14;101178.38;5131889;27;8858;-63
2022/01/17 02:22:44;;;;;;;;;18.40;16.20;;;;;5.78;87.17;101185.38;5123622;27;8833;-64
2022/01/17 02:25:12;;;;;;;;;19.00;18.00;;;;;5.77;87.04;101178.38;5128892;27;8834;-64
2022/01/17 02:27:39;;;;;;;;;11.20;11.00;;;;;5.78;87.36;101193.31;5128612;27;8845;-63
2022/01/17 02:30:07;;;;;;;;;22.60;17.00;;;;;5.77;87.25;101188.97;5129627;27;8873;-64
2022/01/17 02:32:35;;;;;;;;;12.80;12.80;;;;;5.78;86.88;101185.38;5128163;27;9499;-64
2022/01/17 02:35:03;;;;;;;;;15.00;12.20;;;;;5.79;87.06;101179.19;5129362;27;8841;-64
2022/01/17 02:37:30;;;;;;;;;8.60;7.40;;;;;5.79;87.19;101182.72;5128477;27;8842;-64
2022/01/17 02:39:58;;;;;;;;;19.60;17.60;;;;;5.78;87.12;101167.72;5117487;27;8840;-62
2022/01/17 02:42:27;;;;;;;;;18.00;13.80;;;;;5.78;87.28;101164.25;5106616;28;8861;-64
2022/01/17 02:45:00;;;;;;;;;11.20;9.40;;;;;5.78;87.19;101153.69;5108102;28;8865;-64
2022/01/17 02:47:28;;;;;;;;;9.00;6.60;;;;;5.78;87.01;101156.31;5107806;27;8944;-64
2022/01/17 02:49:55;;;;;;;;;12.60;12.40;;;;;5.78;87.16;101157.16;5108927;28;8840;-61
2022/01/17 02:52:24;;;;;;;;;14.20;12.60;;;;;5.79;87.06;101176.53;5122086;27;8837;-62
2022/01/17 02:54:52;;;;;;;;;12.80;11.20;;;;;5.79;87.41;101173.88;5128007;27;9564;-65
2022/01/17 02:57:19;;;;;;;;;18.00;16.20;;;;;5.79;87.17;101166.88;5127421;27;8834;-62
2022/01/17 02:59:47;;;;;;;;;8.80;6.80;;;;;5.79;87.02;101171.25;5128349;27;8868;-64
2022/01/17 03:02:15;;;;;;;;;16.40;13.00;;;;;5.79;87.04;101165.97;5126339;27;9086;-64
2022/01/17 03:04:44;;;;;;;;;16.40;15.20;;;;;5.79;86.66;101168.59;5106295;28;8832;-63
2022/01/17 03:07:11;;;;;;;;;17.20;16.00;;;;;5.80;87.26;101167.72;5108814;27;8831;-64
2022/01/17 03:09:46;;;;;;;;;18.80;16.60;;;;;5.80;86.78;101175.63;5115873;27;8856;-62
2022/01/17 03:12:14;;;;;;;;;14.00;12.80;;;;;5.80;87.02;101173.88;5127531;27;8934;-63
2022/01/17 03:14:42;;;;;;;;;6.40;5.60;;;;;5.80;87.27;101176.50;5129612;27;8960;-64
2022/01/17 03:17:10;;;;;;;;;10.80;8.40;;;;;5.81;87.35;101172.06;5128737;27;8918;-66
2022/01/17 03:19:38;;;;;;;;;21.00;20.20;;;;;5.80;87.18;101157.16;5128426;27;8869;-66
2022/01/17 03:22:05;;;;;;;;;15.00;13.80;;;;;5.79;86.75;101172.16;5117969;27;8836;-62
2022/01/17 03:24:33;;;;;;;;;17.80;17.40;;;;;5.79;86.88;101165.97;5108663;28;8824;-64
2022/01/17 03:27:01;;;;;;;;;11.20;11.00;;;;;5.79;86.77;101184.47;5107767;28;8835;-62
2022/01/17 03:29:29;;;;;;;;;15.00;12.80;;;;;5.79;86.87;101177.44;5105974;28;9520;-63
2022/01/17 03:31:56;;;;;;;;;14.80;13.00;;;;;5.78;87.12;101178.31;5106506;28;8840;-63
2022/01/17 03:34:24;;;;;;;;;15.60;13.20;;;;;5.80;86.83;101183.56;5106674;28;8828;-64
2022/01/17 03:36:52;;;;;;;;;16.80;16.00;;;;;5.80;87.03;101183.56;5106171;28;8832;-64
2022/01/17 03:39:20;;;;;;;;;9.40;9.40;;;;;5.80;86.86;101188.84;5108482;28;9721;-64
2022/01/17 03:41:48;;;;;;;;;16.40;15.20;;;;;5.79;86.82;101176.53;5121682;27;8838;-64
2022/01/17 03:44:15;;;;;;;;;11.20;10.00;;;;;5.79;86.95;101179.19;5117943;28;8850;-64
2022/01/17 03:46:43;;;;;;;;;11.00;7.60;;;;;5.79;87.00;101176.53;5107503;28;8832;-62
2022/01/17 03:49:11;;;;;;;;;17.60;14.60;;;;;5.78;86.88;101174.81;5123004;27;8841;-64
2022/01/17 03:51:39;;;;;;;;;15.00;12.40;;;;;5.78;86.84;101185.38;5117338;28;8855;-64
2022/01/17 03:54:07;;;;;;;;;14.00;12.00;;;;;5.78;86.95;101180.09;5115756;27;8871;-65
2022/01/17 03:56:35;;;;;;;;;17.80;15.20;;;;;5.79;86.87;101166.88;5126014;27;8845;-63
2022/01/17 03:59:02;;;;;;;;;19.20;14.60;;;;;5.80;86.68;101173.00;5125247;27;8960;-64
2022/01/17 04:01:30;;;;;;;;;8.60;6.80;;;;;5.79;87.00;101188.00;5116532;28;8866;-64
2022/01/17 04:03:58;;;;;;;;;13.00;12.80;;;;;5.79;87.00;101181.81;5104508;28;8840;-64
2022/01/17 04:06:27;;;;;;;;;15.60;14.60;;;;;5.79;87.11;101185.38;5106855;27;8835;-62
2022/01/17 04:08:54;;;;;;;;;16.20;15.20;;;;;5.78;87.11;101188.88;5109252;28;8836;-64
2022/01/17 04:11:24;;;;;;;;;18.00;14.80;;;;;5.79;86.98;101197.69;5121366;27;8841;-64
2022/01/17 04:13:51;;;;;;;;;12.60;11.80;;;;;5.78;87.04;101204.72;5131751;27;8842;-63
2022/01/17 04:16:19;;;;;;;;;11.40;10.20;;;;;5.79;87.20;101213.53;5131527;27;8861;-64
2022/01/17 04:18:47;;;;;;;;;15.00;13.40;;;;;5.79;87.01;101211.78;5130399;27;8892;-63
2022/01/17 04:21:14;;;;;;;;;18.60;15.00;;;;;5.81;87.17;101201.13;5127894;27;8859;-63
2022/01/17 04:23:42;;;;;;;;;13.80;12.60;;;;;5.81;86.98;101195.84;5111437;27;8832;-64
2022/01/17 04:26:10;;;;;;;;;20.00;16.40;;;;;5.81;86.90;101172.94;5109446;27;8848;-65
2022/01/17 04:28:38;;;;;;;;;17.00;15.60;;;;;5.82;86.89;101179.94;5109376;28;8864;-64
2022/01/17 04:31:05;;;;;;;;;9.00;6.40;;;;;5.83;86.80;101183.44;5109514;28;8848;-64
2022/01/17 04:33:33;;;;;;;;;12.60;10.40;;;;;5.82;87.03;101177.31;5110372;27;8850;-61
2022/01/17 04:36:06;;;;;;;;;11.20;11.20;;;;;5.83;87.14;101191.34;5111047;28;9824;-64
2022/01/17 04:38:34;;;;;;;;;17.40;16.20;;;;;5.83;86.83;101200.16;5111171;27;8863;-64
2022/01/17 04:41:04;;;;;;;;;12.80;12.00;;;;;5.84;86.85;101199.22;5115842;27;8852;-64
2022/01/17 04:43:56;;;;;;;;;21.00;18.80;;;;;5.84;86.95;101201.88;5121499;27;8850;-65
2022/01/17 04:46:24;;;;;;;;;16.20;13.80;;;;;5.85;86.79;101200.94;5111505;27;8852;-64
2022/01/17 04:48:52;;;;;;;;;12.80;12.20;;;;;5.86;86.99;101200.03;5110206;28;8856;-64
2022/01/17 04:51:19;;;;;;;;;11.20;10.60;;;;;5.86;86.95;101197.38;5115547;27;8834;-62
2022/01/17 04:54:04;;;;;;;;;14.20;13.40;;;;;5.88;86.76;101197.34;5132397;27;8814;-64
2022/01/17 04:56:32;;;;;;;;;14.00;12.60;;;;;5.88;86.33;101192.03;5130026;27;8846;-63
2022/01/17 04:59:00;;;;;;;;;15.60;13.60;;;;;5.87;86.73;101187.69;5131348;27;8845;-64
2022/01/17 05:01:27;;;;;;;;;15.80;14.20;;;;;5.87;86.73;101190.31;5132061;27;8853;-63
2022/01/17 05:03:57;;;;;;;;;13.20;12.80;;;;;5.87;86.74;101198.25;5124143;27;8948;-64
2022/01/17 05:06:24;;;;;;;;;16.20;15.00;;;;;5.86;86.82;101193.91;5132089;27;8826;-64
2022/01/17 05:08:52;;;;;;;;;14.00;13.00;;;;;5.86;86.87;101199.19;5130824;27;8965;-64
2022/01/17 05:11:24;;;;;;;;;14.80;13.20;;;;;5.86;86.93;101196.53;5131138;27;8892;-63
2022/01/17 05:13:55;;;;;;;;;16.80;12.80;;;;;5.87;86.58;101212.34;5129054;27;8818;-64
2022/01/17 05:16:30;;;;;;;;;10.80;9.00;;;;;5.88;86.95;101219.34;5128976;27;8845;-63
2022/01/17 05:21:43;;;;;;;;;9.00;6.00;;;;;5.91;86.58;101211.28;5129130;27;8846;-63
2022/01/17 05:24:11;;;;;;;;;14.60;14.00;;;;;5.92;86.66;101226.22;5130245;27;8854;-63
2022/01/17 05:26:43;;;;;;;;;20.40;18.80;;;;;5.92;86.90;101230.66;5130963;27;8872;-62
2022/01/17 05:29:11;;;;;;;;;17.60;14.60;;;;;5.92;86.63;101238.59;5127672;27;8838;-63
2022/01/17 05:31:39;;;;;;;;;18.00;14.20;;;;;5.91;86.66;101239.53;5128090;27;8856;-63
2022/01/17 05:34:06;;;;;;;;;16.00;13.80;;;;;5.91;86.85;101256.22;5129462;27;8837;-63
2022/01/17 05:36:34;;;;;;;;;8.20;6.80;;;;;5.91;86.60;101252.72;5127913;27;8861;-62
2022/01/17 05:39:02;;;;;;;;;12.40;10.80;;;;;5.91;86.59;101240.34;5127127;27;8891;-64
2022/01/17 05:41:30;;;;;;;;;12.00;8.60;;;;;5.92;86.70;101246.53;5128971;27;8931;-62
2022/01/17 05:43:57;;;;;;;;;18.60;18.60;;;;;5.91;86.77;101242.16;5128584;27;8842;-63
2022/01/17 05:46:26;;;;;;;;;13.40;12.80;;;;;5.91;86.60;101244.81;5127716;27;8838;-62
2022/01/17 05:48:53;;;;;;;;;10.00;9.60;;;;;5.91;86.55;101237.72;5127082;27;8882;-63
2022/01/17 05:51:21;;;;;;;;;9.40;8.20;;;;;5.91;86.57;101229.78;5116644;27;8840;-62
2022/01/17 05:53:49;;;;;;;;;10.80;9.40;;;;;5.91;86.42;101231.59;5108239;28;8857;-64
2022/01/17 05:56:17;;;;;;;;;1.00;0.40;;;;;5.89;86.43;101220.19;5107933;28;9926;-63
2022/01/17 05:58:44;;;;;;;;;12.40;9.80;;;;;5.89;86.75;101214.91;5106693;28;8836;-63
2022/01/17 06:01:14;;;;;;;;;15.40;13.80;;;;;5.88;86.63;101207.91;5102417;28;8882;-63
2022/01/17 06:03:42;;;;;;;;;12.40;11.20;;;;;5.88;86.24;101199.97;5120717;27;8883;-63
2022/01/17 06:06:10;;;;;;;;;10.20;9.00;;;;;5.87;86.75;101191.19;5126595;27;8907;-63
2022/01/17 06:08:37;;;;;;;;;13.40;11.60;;;;;5.87;86.76;101190.31;5124771;27;8845;-62
2022/01/17 06:11:05;;;;;;;;;7.80;7.20;;;;;5.85;86.98;101195.66;5121664;27;8834;-63
2022/01/17 06:13:35;;;;;;;;;6.40;6.00;;;;;5.86;86.41;101199.19;5121067;27;9122;-63
2022/01/17 06:16:02;;;;;;;;;12.00;10.00;;;;;5.85;86.64;101189.53;5118782;27;8875;-60
2022/01/17 06:18:30;;;;;;;;;11.40;8.60;;;;;5.84;86.57;101199.22;5119022;27;8893;-63
2022/01/17 06:20:58;;;;;;;;;9.60;7.80;;;;;5.83;86.31;101197.53;5119092;27;9142;-61
2022/01/17 06:23:26;;;;;;;;;10.80;8.60;;;;;5.84;87.03;101195.75;5120706;27;8883;-63
2022/01/17 06:25:54;;;;;;;;;11.20;9.60;;;;;5.84;86.23;101199.22;5120283;27;8880;-64
2022/01/17 06:28:21;;;;;;;;;6.60;6.60;;;;;5.85;86.69;101197.47;5119793;27;8857;-63
2022/01/17 06:30:50;;;;;;;;;9.40;9.00;;;;;5.84;86.53;101201.03;5120156;27;8830;-62
2022/01/17 06:33:17;;;;;;;;;11.80;11.40;;;;;5.84;86.80;101204.53;5121007;27;8849;-63
2022/01/17 06:35:45;;;;;;;;;10.20;8.20;;;;;5.85;86.51;101194.81;5120462;27;9102;-62
2022/01/17 06:38:13;;;;;;;;;12.40;11.60;;;;;5.86;86.20;101199.19;5116272;27;8849;-63
2022/01/17 06:40:41;;;;;;;;;9.00;9.00;;;;;5.86;86.42;101196.53;5117931;27;9229;-62
2022/01/17 06:43:10;;;;;;;;;7.40;7.00;;;;;5.86;86.59;101191.25;5119394;27;8945;-63
2022/01/17 06:45:38;;;;;;;;;11.20;9.00;;;;;5.86;86.64;101199.19;5115692;27;9079;-63
2022/01/17 06:48:06;;;;;;;;;6.20;5.80;;;;;5.87;86.16;101204.41;5112030;27;9134;-63
2022/01/17 06:50:34;;;;;;;;;9.60;9.20;;;;;5.87;86.20;101217.63;5114812;27;8845;-62
2022/01/17 06:53:02;;;;;;;;;9.40;9.00;;;;;5.88;86.34;101210.53;5116384;27;9467;-63
2022/01/17 06:55:30;;;;;;;;;7.80;7.80;;;;;5.89;86.33;101225.47;5114612;27;9235;-63
2022/01/17 06:57:57;;;;;;;;;7.00;7.00;;;;;5.88;86.25;101234.34;5110875;27;8926;-63
2022/01/17 07:00:25;;;;;;;;;10.00;9.00;;;;;5.88;86.39;101247.56;5109352;27;8955;-63
2022/01/17 07:02:53;;;;;;;;;9.60;9.00;;;;;5.89;86.33;101246.63;5113192;27;9301;-63
2022/01/17 07:05:21;;;;;;;;;10.00;7.80;;;;;5.91;86.22;101256.22;5113619;27;9309;-64
2022/01/17 07:07:49;;;;;;;;;10.00;9.60;;;;;5.91;86.41;101268.59;5113003;27;9132;-62
2022/01/17 07:10:16;;;;;;;;;9.40;7.00;;;;;5.93;86.41;101274.66;5110082;27;9134;-63
2022/01/17 07:12:44;;;;;;;;;9.80;8.80;;;;;5.93;85.93;101298.47;5113164;27;8892;-63
2022/01/17 07:15:14;;;;;;;;;11.00;9.60;;;;;5.92;86.02;101294.09;5112823;27;9219;-63
2022/01/17 07:17:41;;;;;;;;;9.20;7.40;;;;;5.94;85.89;101266.69;5109588;27;8857;-62
2022/01/17 07:20:09;;;;;;;;;9.60;8.40;;;;;5.95;86.17;101236.69;5110284;27;8876;-63
2022/01/17 07:22:37;;;;;;;;;3.60;3.60;;;;;5.96;86.03;101224.31;5112521;27;8842;-62
2022/01/17 07:25:05;;;;;;;;;10.00;7.80;;;;;5.96;85.85;101211.97;5112077;27;9518;-63
2022/01/17 07:27:34;;;;;;;;;12.00;11.20;;;;;5.98;86.33;101214.53;5111817;27;8961;-62
2022/01/17 07:30:02;;;;;;;;;10.80;8.40;;;;;5.99;86.07;101211.00;5112656;27;8876;-64
2022/01/17 07:32:29;;;;;;;;;9.20;7.80;;;;;5.99;86.05;101216.28;5110374;27;8979;-63
2022/01/17 07:34:57;;;;;;;;;12.00;10.80;;;;;5.99;86.23;101232.97;5115162;27;9821;-64
2022/01/17 07:37:25;;;;;;;;;8.60;7.00;;;;;6.01;86.21;101240.84;5115494;27;8922;-67
2022/01/17 07:39:53;;;;;;;;;9.20;9.20;;;;;6.02;86.36;101239.94;5112253;27;8825;-63
2022/01/17 07:42:20;;;;;;;;;8.40;7.40;;;;;6.02;85.89;101247.88;5110687;27;8900;-63
2022/01/17 07:44:54;;;;;;;;;9.00;9.00;;;;;6.01;86.00;101252.28;5108854;27;8868;-63
2022/01/17 07:47:37;;;;;;;;;10.80;10.40;;;;;6.02;86.08;101253.16;5109121;27;8866;-62
2022/01/17 07:50:05;;;;;;;;;7.00;6.80;;;;;6.02;86.14;101256.66;5108691;27;9208;-63
2022/01/17 07:52:34;;;;;;;;;4.40;4.40;;;;;6.03;86.23;101261.03;5109475;27;9141;-61
2022/01/17 07:55:02;;;;;;;;;6.20;6.20;;;;;6.04;85.94;101264.53;5112661;27;8873;-63
2022/01/17 07:57:30;;;;;;;;;11.00;10.60;;;;;6.06;85.60;101265.34;5110447;27;8854;-63
2022/01/17 07:59:58;;;;;;;;;9.60;9.40;;;;;6.07;86.36;101275.84;5112155;27;8892;-63
2022/01/17 08:02:32;;;;;;;;;12.60;11.20;;;;;6.09;85.77;101275.78;5119641;27;8870;-63
2022/01/17 08:05:00;;;;;;;;;3.00;2.20;;;;;6.11;85.98;101284.50;5110829;27;8870;-62
2022/01/17 08:07:30;;;;;;;;;10.80;10.20;;;;;6.12;85.97;101287.09;5112375;27;8952;-63
2022/01/17 08:09:58;;;;;;;;;9.60;5.20;;;;;6.15;85.55;101292.25;5113117;27;9163;-63
2022/01/17 08:12:25;;;;;;;;;9.80;9.80;;;;;6.16;85.76;101283.38;5111213;27;8834;-64
2022/01/17 08:14:57;;;;;;;;;9.40;8.60;;;;;6.19;85.82;101299.16;5111523;27;8854;-63
2022/01/17 08:17:25;;;;;;;;;6.00;6.00;;;;;6.23;85.65;101305.19;5109750;27;8841;-63
2022/01/17 08:19:57;;;;;;;;;7.40;6.40;;;;;6.23;85.94;101305.19;5111937;27;8853;-62
2022/01/17 08:22:25;;;;;;;;;12.00;10.00;;;;;6.25;85.60;101300.69;5109019;27;8846;-63
2022/01/17 08:24:54;;;;;;;;;14.60;12.60;;;;;6.27;85.54;101290.88;5111302;27;9184;-63
2022/01/17 08:27:22;;;;;;;;;11.20;10.80;;;;;6.28;85.75;101293.47;5107985;27;8861;-62
2022/01/17 08:29:51;;;;;;;;;14.60;13.80;;;;;6.31;85.33;101284.56;5106704;27;9126;-63
2022/01/17 08:32:38;;;;;;;;;9.60;9.20;;;;;6.32;85.08;101289.81;5103716;27;8880;-63
2022/01/17 08:35:06;;;;;;;;;11.60;10.00;;;;;6.36;85.58;101290.53;5104221;27;9175;-63
2022/01/17 08:37:34;;;;;;;;;13.80;12.40;;;;;6.36;85.10;101287.91;5104897;27;9205;-61
2022/01/17 08:40:02;;;;;;;;;9.40;6.80;;;;;6.37;85.26;101292.25;5107830;27;8865;-63
2022/01/17 08:42:33;;;;;;;;;11.20;11.20;;;;;6.38;85.43;101286.03;5106507;27;8849;-63
2022/01/17 08:45:01;;;;;;;;;15.60;12.20;;;;;6.39;85.36;101282.47;5110186;27;8849;-62
2022/01/17 08:47:29;;;;;;;;;14.80;12.00;;;;;6.40;85.25;101276.25;5110354;27;9511;-61
2022/01/17 08:49:56;;;;;;;;;18.60;16.60;;;;;6.41;85.44;101283.25;5109952;27;8872;-63
2022/01/17 08:52:24;;;;;;;;;13.40;12.40;;;;;6.40;85.46;101285.06;5110060;27;8838;-60
2022/01/17 08:54:53;;;;;;;;;15.80;14.20;;;;;6.39;84.90;101286.00;5112997;27;8896;-63
2022/01/17 08:57:21;;;;;;;;;15.60;14.20;;;;;6.36;85.18;101290.53;5107039;27;9618;-63
2022/01/17 08:59:50;;;;;;;;;10.80;10.40;;;;;6.28;85.68;101301.41;5108055;27;8837;-64
2022/01/17 09:02:18;;;;;;;;;16.00;12.60;;;;;6.24;85.88;101305.13;5107759;27;8849;-62
2022/01/17 09:04:46;;;;;;;;;11.40;10.60;;;;;6.20;85.84;101302.63;5111112;27;9255;-63
2022/01/17 09:07:14;;;;;;;;;17.80;15.60;;;;;6.16;85.78;101301.06;5111323;27;9518;-63
2022/01/17 09:09:42;;;;;;;;;8.20;7.80;;;;;6.17;86.03;101302.78;5110224;27;9226;-63
2022/01/17 09:12:10;;;;;;;;;7.00;7.00;;;;;6.18;86.40;101308.00;5107746;27;9501;-63
2022/01/17 09:14:38;;;;;;;;;14.00;12.00;;;;;6.19;86.02;101307.09;5108932;27;8834;-61
2022/01/17 09:17:07;;;;;;;;;15.00;13.20;;;;;6.20;86.47;101303.50;5111277;27;9628;-63
2022/01/17 09:19:38;;;;;;;;;17.60;13.60;;;;;6.23;85.77;101303.38;5112794;27;8866;-63
2022/01/17 09:22:07;;;;;;;;;12.40;10.80;;;;;6.25;85.74;101290.97;5111944;27;8946;-63
2022/01/17 09:24:37;;;;;;;;;13.40;9.60;;;;;6.29;85.61;101291.72;5111063;27;8868;-62
2022/01/17 09:27:05;;;;;;;;;15.60;15.00;;;;;6.33;86.13;101288.00;5112480;27;8980;-63
2022/01/17 09:29:32;;;;;;;;;18.60;16.80;;;;;6.36;85.48;101295.84;5112749;27;8914;-63
2022/01/17 09:32:00;;;;;;;;;6.40;5.80;;;;;6.37;85.79;101287.81;5112633;27;8880;-63
2022/01/17 09:34:28;;;;;;;;;13.00;10.80;;;;;6.38;85.48;101289.53;5112656;27;9264;-63
2022/01/17 09:36:56;;;;;;;;;14.80;12.00;;;;;6.37;85.70;101295.75;5112120;27;8841;-63
2022/01/17 09:39:24;;;;;;;;;17.80;16.00;;;;;6.41;85.51;101304.41;5113781;27;9233;-62
2022/01/17 09:41:51;;;;;;;;;14.60;14.20;;;;;6.42;85.88;101322.88;5115529;27;8847;-63
2022/01/17 09:44:19;;;;;;;;;11.40;10.80;;;;;6.39;85.86;101332.72;5114521;27;9129;-63
2022/01/17 09:46:53;;;;;;;;;22.40;18.00;;;;;6.38;85.96;101338.94;5112274;27;9107;-62
2022/01/17 09:49:25;;;;;;;;;19.20;15.40;;;;;6.39;85.86;101338.91;5110339;27;8853;-64
2022/01/17 09:54:42;;;;;;;;;6.60;5.20;;;;;6.36;85.73;101370.75;5105239;27;8891;-62
2022/01/17 09:57:09;;;;;;;;;17.60;14.80;;;;;6.36;85.94;101354.88;5111572;27;8853;-62
2022/01/17 09:59:37;;;;;;;;;6.80;4.80;;;;;6.34;86.10;101375.25;5112862;27;8857;-63
2022/01/17 10:02:05;;;;;;;;;11.60;11.20;;;;;6.33;85.63;101391.16;5111500;27;8954;-63
2022/01/17 10:04:33;;;;;;;;;11.40;8.80;;;;;6.32;86.05;101365.63;5111255;27;9227;-64
2022/01/17 10:07:04;;;;;;;;;19.40;14.60;;;;;6.27;86.15;101373.75;5110435;27;8891;-64
2022/01/17 10:09:34;;;;;;;;;18.60;14.20;;;;;6.25;86.40;101383.53;5111006;27;8875;-63
2022/01/17 10:12:02;;;;;;;;;13.00;13.00;;;;;6.23;86.39;101372.13;5107121;27;8896;-63
2022/01/17 10:14:29;;;;;;;;;16.40;16.40;;;;;6.20;86.08;101351.13;5109275;27;8853;-63
2022/01/17 10:16:57;;;;;;;;;14.60;13.00;;;;;6.18;86.86;101354.72;5109671;27;8863;-64
2022/01/17 10:19:26;;;;;;;;;12.60;11.60;;;;;6.17;86.51;101364.47;5107793;27;8870;-62
2022/01/17 10:21:55;;;;;;;;;15.40;13.40;;;;;6.15;86.84;101346.94;5103975;27;9152;-62
2022/01/17 10:24:25;;;;;;;;;20.40;19.00;;;;;6.13;86.57;101356.69;5109487;27;8888;-63
2022/01/17 10:27:13;;;;;;;;;20.60;17.60;;;;;6.12;87.56;101350.56;5111923;27;8869;-62
2022/01/17 10:35:11;;;;;;;;;9.60;8.60;;;;;6.08;87.25;101348.09;5109652;27;8845;-64
2022/01/17 10:37:39;;;;;;;;;14.60;13.80;;;;;6.09;87.63;101333.94;5106538;27;9108;-64
2022/01/17 10:40:06;;;;;;;;;15.80;13.00;;;;;6.09;86.72;101333.94;5111117;27;9189;-63
2022/01/17 10:42:35;;;;;;;;;21.20;17.60;;;;;6.09;87.69;101345.41;5110189;27;9592;-62
2022/01/17 10:45:03;;;;;;;;;20.60;17.80;;;;;6.08;87.29;101343.66;5109670;27;8873;-62
2022/01/17 10:47:30;;;;;;;;;15.60;15.00;;;;;6.06;87.05;101356.06;5111385;27;9402;-64
2022/01/17 10:49:58;;;;;;;;;15.40;12.80;;;;;6.06;87.51;101360.53;5108766;27;8845;-63
2022/01/17 10:52:26;;;;;;;;;14.40;13.80;;;;;6.07;87.40;101378.09;5113745;27;9491;-64
2022/01/17 10:54:54;;;;;;;;;18.60;16.20;;;;;6.08;87.06;101363.97;5114470;27;9173;-63
2022/01/17 10:57:22;;;;;;;;;11.60;10.60;;;;;6.09;87.29;101370.97;5112184;27;8826;-61
2022/01/17 10:59:51;;;;;;;;;8.80;7.40;;;;;6.10;87.33;101388.56;5108551;27;8976;-64
2022/01/17 11:02:19;;;;;;;;;12.60;9.00;;;;;6.12;87.34;101392.00;5108363;27;8857;-67
2022/01/17 11:04:47;;;;;;;;;16.00;15.00;;;;;6.13;87.18;101396.34;5109115;27;8861;-62
2022/01/17 11:07:15;;;;;;;;;13.40;10.40;;;;;6.13;87.55;101391.06;5108919;27;9247;-61
2022/01/17 11:09:43;;;;;;;;;12.80;11.20;;;;;6.14;87.23;101383.09;5104882;27;9091;-62
2022/01/17 11:12:11;;;;;;;;;7.20;6.80;;;;;6.15;87.18;101382.16;5107507;27;8901;-63
2022/01/17 11:14:39;;;;;;;;;15.00;12.60;;;;;6.18;87.44;101381.19;5108441;27;8838;-63
2022/01/17 11:17:07;;;;;;;;;18.40;14.80;;;;;6.19;87.40;101382.91;5108019;27;8853;-61
2022/01/17 11:22:20;;;;;;;;;10.60;10.60;;;;;6.21;86.98;101370.50;5112228;27;8853;-63
2022/01/17 11:24:53;;;;;;;;;9.00;6.00;;;;;6.20;87.02;101374.03;5111995;27;9536;-63
2022/01/17 11:27:20;;;;;;;;;12.80;10.80;;;;;6.20;87.71;101359.06;5111000;27;8870;-62
2022/01/17 11:29:49;;;;;;;;;15.40;14.20;;;;;6.21;87.36;101354.63;5111047;27;8857;-62
2022/01/17 11:32:16;;;;;;;;;17.60;14.60;;;;;6.21;87.31;101354.63;5108345;27;9114;-62
2022/01/17 11:34:44;;;;;;;;;10.20;9.40;;;;;6.22;87.92;101345.78;5107811;27;9290;-61
2022/01/17 11:37:12;;;;;;;;;10.80;10.00;;;;;6.24;87.08;101336.00;5111295;27;8838;-62
2022/01/17 11:39:41;;;;;;;;;14.20;14.20;;;;;6.25;87.61;101350.94;5110374;27;9480;-63
2022/01/17 11:42:08;;;;;;;;;6.40;6.00;;;;;6.25;87.30;101361.50;5112297;27;8837;-63
2022/01/17 11:44:38;;;;;;;;;13.40;11.00;;;;;6.25;87.40;101369.44;5107671;27;8842;-64
2022/01/17 11:47:09;;;;;;;;;13.00;13.00;;;;;6.26;87.49;101369.41;5106581;27;9106;-62
2022/01/17 11:49:40;;;;;;;;;11.60;10.80;;;;;6.26;87.40;101364.09;5107602;27;8853;-63
2022/01/17 11:52:12;;;;;;;;;19.20;17.00;;;;;6.29;87.51;101365.78;5110566;27;8972;-64
2022/01/17 11:54:40;;;;;;;;;16.40;15.60;;;;;6.31;87.43;101361.28;5110113;27;8842;-62